sensor_id;sensor_type;location;lat;lon;timestamp;P1;durP1;ratioP1;P2;durP2;ratioP2
77625;SDS011;66794;43.764;10.436;2023-06-14T00:01:40;12.52;;;5.30;;
77625;SDS011;66794;43.764;10.436;2023-06-14T00:04:25;9.90;;;4.95;;
77625;SDS011;66794;43.764;10.436;2023-06-14T00:07:11;8.90;;;5.20;;
77625;SDS011;66794;43.764;10.436;2023-06-14T00:09:59;9.40;;;4.80;;
77625;SDS011;66794;43.764;10.436;2023-06-14T00:12:44;14.60;;;5.28;;
77625;SDS011;66794;43.764;10.436;2023-06-14T00:15:31;9.80;;;5.15;;
77625;SDS011;66794;43.764;10.436;2023-06-14T00:18:17;9.02;;;5.32;;
77625;SDS011;66794;43.764;10.436;2023-06-14T00:21:02;9.95;;;5.10;;
77625;SDS011;66794;43.764;10.436;2023-06-14T00:23:49;9.43;;;5.82;;
77625;SDS011;66794;43.764;10.436;2023-06-14T00:26:35;8.52;;;5.45;;
77625;SDS011;66794;43.764;10.436;2023-06-14T00:29:21;17.50;;;5.95;;
77625;SDS011;66794;43.764;10.436;2023-06-14T00:32:06;13.70;;;5.95;;
77625;SDS011;66794;43.764;10.436;2023-06-14T00:34:53;9.13;;;5.68;;
77625;SDS011;66794;43.764;10.436;2023-06-14T00:37:38;15.18;;;5.78;;
77625;SDS011;66794;43.764;10.436;2023-06-14T00:40:24;8.88;;;5.07;;
77625;SDS011;66794;43.764;10.436;2023-06-14T00:43:10;8.55;;;5.38;;
77625;SDS011;66794;43.764;10.436;2023-06-14T00:45:56;10.13;;;4.70;;
77625;SDS011;66794;43.764;10.436;2023-06-14T00:48:42;10.50;;;5.00;;
77625;SDS011;66794;43.764;10.436;2023-06-14T00:51:28;14.80;;;5.45;;
77625;SDS011;66794;43.764;10.436;2023-06-14T00:54:14;7.43;;;5.00;;
77625;SDS011;66794;43.764;10.436;2023-06-14T00:57:00;8.73;;;4.22;;
77625;SDS011;66794;43.764;10.436;2023-06-14T00:59:46;6.82;;;4.88;;
77625;SDS011;66794;43.764;10.436;2023-06-14T01:02:33;6.50;;;5.40;;
77625;SDS011;66794;43.764;10.436;2023-06-14T01:05:20;8.65;;;6.10;;
77625;SDS011;66794;43.764;10.436;2023-06-14T01:08:24;13.90;;;5.40;;
77625;SDS011;66794;43.764;10.436;2023-06-14T01:11:24;7.20;;;5.97;;
77625;SDS011;66794;43.764;10.436;2023-06-14T01:14:16;8.70;;;6.03;;
77625;SDS011;66794;43.764;10.436;2023-06-14T01:17:03;7.97;;;5.90;;
77625;SDS011;66794;43.764;10.436;2023-06-14T01:19:50;11.20;;;7.28;;
77625;SDS011;66794;43.764;10.436;2023-06-14T01:22:50;10.57;;;8.10;;
77625;SDS011;66794;43.764;10.436;2023-06-14T01:25:37;11.75;;;7.30;;
77625;SDS011;66794;43.764;10.436;2023-06-14T01:28:24;10.23;;;6.80;;
77625;SDS011;66794;43.764;10.436;2023-06-14T01:31:11;12.10;;;5.88;;
77625;SDS011;66794;43.764;10.436;2023-06-14T01:33:57;8.35;;;5.55;;
77625;SDS011;66794;43.764;10.436;2023-06-14T01:36:43;8.18;;;5.03;;
77625;SDS011;66794;43.764;10.436;2023-06-14T01:39:30;9.15;;;5.47;;
77625;SDS011;66794;43.764;10.436;2023-06-14T01:42:17;9.95;;;4.80;;
77625;SDS011;66794;43.764;10.436;2023-06-14T01:45:04;8.13;;;5.00;;
77625;SDS011;66794;43.764;10.436;2023-06-14T01:47:51;9.98;;;6.25;;
77625;SDS011;66794;43.764;10.436;2023-06-14T01:50:37;7.88;;;5.90;;
77625;SDS011;66794;43.764;10.436;2023-06-14T01:53:23;12.35;;;6.43;;
77625;SDS011;66794;43.764;10.436;2023-06-14T01:56:09;10.07;;;6.47;;
77625;SDS011;66794;43.764;10.436;2023-06-14T01:58:55;13.60;;;6.78;;
77625;SDS011;66794;43.764;10.436;2023-06-14T02:01:41;9.80;;;5.30;;
77625;SDS011;66794;43.764;10.436;2023-06-14T02:04:27;10.30;;;5.45;;
77625;SDS011;66794;43.764;10.436;2023-06-14T02:07:13;12.73;;;5.22;;
77625;SDS011;66794;43.764;10.436;2023-06-14T02:09:59;7.43;;;5.15;;
77625;SDS011;66794;43.764;10.436;2023-06-14T02:12:45;7.65;;;5.68;;
77625;SDS011;66794;43.764;10.436;2023-06-14T02:15:31;10.30;;;5.78;;
77625;SDS011;66794;43.764;10.436;2023-06-14T02:18:20;11.40;;;5.80;;
77625;SDS011;66794;43.764;10.436;2023-06-14T02:21:06;7.43;;;5.35;;
77625;SDS011;66794;43.764;10.436;2023-06-14T02:23:52;10.90;;;5.65;;
77625;SDS011;66794;43.764;10.436;2023-06-14T02:26:38;13.23;;;5.50;;
77625;SDS011;66794;43.764;10.436;2023-06-14T02:29:26;10.20;;;5.38;;
77625;SDS011;66794;43.764;10.436;2023-06-14T02:32:12;11.02;;;6.30;;
77625;SDS011;66794;43.764;10.436;2023-06-14T02:34:58;14.77;;;6.68;;
77625;SDS011;66794;43.764;10.436;2023-06-14T02:37:44;12.63;;;6.50;;
77625;SDS011;66794;43.764;10.436;2023-06-14T02:40:30;14.63;;;6.20;;
77625;SDS011;66794;43.764;10.436;2023-06-14T02:43:16;8.93;;;6.40;;
77625;SDS011;66794;43.764;10.436;2023-06-14T02:46:03;12.15;;;6.13;;
77625;SDS011;66794;43.764;10.436;2023-06-14T02:48:49;17.45;;;6.97;;
77625;SDS011;66794;43.764;10.436;2023-06-14T02:51:35;11.32;;;6.38;;
77625;SDS011;66794;43.764;10.436;2023-06-14T02:54:21;12.90;;;7.55;;
77625;SDS011;66794;43.764;10.436;2023-06-14T02:57:07;14.57;;;7.10;;
77625;SDS011;66794;43.764;10.436;2023-06-14T02:59:53;17.02;;;7.63;;
77625;SDS011;66794;43.764;10.436;2023-06-14T03:02:39;19.42;;;7.90;;
77625;SDS011;66794;43.764;10.436;2023-06-14T03:05:25;10.20;;;8.27;;
77625;SDS011;66794;43.764;10.436;2023-06-14T03:08:13;11.50;;;7.60;;
77625;SDS011;66794;43.764;10.436;2023-06-14T03:11:04;15.70;;;8.10;;
77625;SDS011;66794;43.764;10.436;2023-06-14T03:13:51;15.15;;;8.63;;
77625;SDS011;66794;43.764;10.436;2023-06-14T03:16:37;19.70;;;8.73;;
77625;SDS011;66794;43.764;10.436;2023-06-14T03:19:23;17.75;;;8.43;;
77625;SDS011;66794;43.764;10.436;2023-06-14T03:22:09;14.60;;;8.88;;
77625;SDS011;66794;43.764;10.436;2023-06-14T03:24:57;15.75;;;8.00;;
77625;SDS011;66794;43.764;10.436;2023-06-14T03:27:44;13.52;;;7.85;;
77625;SDS011;66794;43.764;10.436;2023-06-14T03:30:30;11.73;;;6.97;;
77625;SDS011;66794;43.764;10.436;2023-06-14T03:33:16;9.23;;;5.95;;
77625;SDS011;66794;43.764;10.436;2023-06-14T03:36:02;8.45;;;5.47;;
77625;SDS011;66794;43.764;10.436;2023-06-14T03:38:48;9.90;;;5.80;;
77625;SDS011;66794;43.764;10.436;2023-06-14T03:41:34;9.95;;;5.80;;
77625;SDS011;66794;43.764;10.436;2023-06-14T03:44:20;10.27;;;7.32;;
77625;SDS011;66794;43.764;10.436;2023-06-14T03:47:06;14.95;;;7.75;;
77625;SDS011;66794;43.764;10.436;2023-06-14T03:49:52;11.57;;;7.90;;
77625;SDS011;66794;43.764;10.436;2023-06-14T03:52:38;15.63;;;7.53;;
77625;SDS011;66794;43.764;10.436;2023-06-14T03:55:24;9.15;;;6.20;;
77625;SDS011;66794;43.764;10.436;2023-06-14T03:58:13;11.43;;;6.20;;
77625;SDS011;66794;43.764;10.436;2023-06-14T04:00:58;15.68;;;7.22;;
77625;SDS011;66794;43.764;10.436;2023-06-14T04:03:44;12.95;;;7.88;;
77625;SDS011;66794;43.764;10.436;2023-06-14T04:06:30;10.98;;;8.15;;
77625;SDS011;66794;43.764;10.436;2023-06-14T04:09:19;11.18;;;8.60;;
77625;SDS011;66794;43.764;10.436;2023-06-14T04:12:05;13.02;;;8.20;;
77625;SDS011;66794;43.764;10.436;2023-06-14T04:14:51;11.38;;;8.38;;
77625;SDS011;66794;43.764;10.436;2023-06-14T04:17:37;13.70;;;9.07;;
77625;SDS011;66794;43.764;10.436;2023-06-14T04:20:23;13.57;;;9.30;;
77625;SDS011;66794;43.764;10.436;2023-06-14T04:23:13;14.30;;;8.75;;
77625;SDS011;66794;43.764;10.436;2023-06-14T04:26:00;12.70;;;8.38;;
77625;SDS011;66794;43.764;10.436;2023-06-14T04:28:47;14.20;;;9.23;;
77625;SDS011;66794;43.764;10.436;2023-06-14T04:31:34;14.50;;;8.55;;
77625;SDS011;66794;43.764;10.436;2023-06-14T04:34:23;12.82;;;8.55;;
77625;SDS011;66794;43.764;10.436;2023-06-14T04:37:09;15.05;;;8.70;;
77625;SDS011;66794;43.764;10.436;2023-06-14T04:39:55;13.38;;;8.45;;
77625;SDS011;66794;43.764;10.436;2023-06-14T04:42:41;12.73;;;9.02;;
77625;SDS011;66794;43.764;10.436;2023-06-14T04:45:30;13.30;;;9.07;;
77625;SDS011;66794;43.764;10.436;2023-06-14T04:48:17;8.80;;;7.30;;
77625;SDS011;66794;43.764;10.436;2023-06-14T04:51:05;13.80;;;8.45;;
77625;SDS011;66794;43.764;10.436;2023-06-14T04:53:51;13.63;;;7.72;;
77625;SDS011;66794;43.764;10.436;2023-06-14T04:56:37;10.30;;;7.65;;
77625;SDS011;66794;43.764;10.436;2023-06-14T04:59:23;11.60;;;7.18;;
77625;SDS011;66794;43.764;10.436;2023-06-14T05:02:10;11.43;;;7.53;;
77625;SDS011;66794;43.764;10.436;2023-06-14T05:04:57;11.77;;;7.50;;
77625;SDS011;66794;43.764;10.436;2023-06-14T05:07:43;12.18;;;7.53;;
77625;SDS011;66794;43.764;10.436;2023-06-14T05:10:28;12.43;;;7.75;;
77625;SDS011;66794;43.764;10.436;2023-06-14T05:13:14;7.72;;;6.60;;
77625;SDS011;66794;43.764;10.436;2023-06-14T05:16:00;12.90;;;6.50;;
77625;SDS011;66794;43.764;10.436;2023-06-14T05:18:46;7.45;;;6.10;;
77625;SDS011;66794;43.764;10.436;2023-06-14T05:21:32;7.50;;;5.10;;
77625;SDS011;66794;43.764;10.436;2023-06-14T05:24:21;5.35;;;4.70;;
77625;SDS011;66794;43.764;10.436;2023-06-14T05:27:07;9.38;;;4.93;;
77625;SDS011;66794;43.764;10.436;2023-06-14T05:29:53;5.97;;;4.97;;
77625;SDS011;66794;43.764;10.436;2023-06-14T05:32:44;5.80;;;4.75;;
77625;SDS011;66794;43.764;10.436;2023-06-14T05:35:30;8.27;;;5.53;;
77625;SDS011;66794;43.764;10.436;2023-06-14T05:38:16;6.25;;;4.65;;
77625;SDS011;66794;43.764;10.436;2023-06-14T05:41:01;7.53;;;4.60;;
77625;SDS011;66794;43.764;10.436;2023-06-14T05:43:47;6.15;;;4.40;;
77625;SDS011;66794;43.764;10.436;2023-06-14T05:46:33;6.90;;;4.90;;
77625;SDS011;66794;43.764;10.436;2023-06-14T05:49:19;5.80;;;4.10;;
77625;SDS011;66794;43.764;10.436;2023-06-14T05:52:05;8.18;;;3.75;;
77625;SDS011;66794;43.764;10.436;2023-06-14T05:54:51;7.35;;;4.50;;
77625;SDS011;66794;43.764;10.436;2023-06-14T05:57:37;11.20;;;4.13;;
77625;SDS011;66794;43.764;10.436;2023-06-14T06:00:23;5.25;;;3.97;;
77625;SDS011;66794;43.764;10.436;2023-06-14T06:03:08;10.70;;;5.60;;
77625;SDS011;66794;43.764;10.436;2023-06-14T06:05:56;9.98;;;5.53;;
77625;SDS011;66794;43.764;10.436;2023-06-14T06:08:42;9.38;;;5.60;;
77625;SDS011;66794;43.764;10.436;2023-06-14T06:11:28;6.07;;;5.30;;
77625;SDS011;66794;43.764;10.436;2023-06-14T06:14:13;6.32;;;4.75;;
77625;SDS011;66794;43.764;10.436;2023-06-14T06:17:00;10.80;;;5.22;;
77625;SDS011;66794;43.764;10.436;2023-06-14T06:19:45;7.45;;;5.32;;
77625;SDS011;66794;43.764;10.436;2023-06-14T06:22:31;11.48;;;5.72;;
77625;SDS011;66794;43.764;10.436;2023-06-14T06:25:17;9.63;;;5.00;;
77625;SDS011;66794;43.764;10.436;2023-06-14T06:28:04;4.97;;;4.47;;
77625;SDS011;66794;43.764;10.436;2023-06-14T06:30:49;7.03;;;4.40;;
77625;SDS011;66794;43.764;10.436;2023-06-14T06:33:36;5.80;;;4.00;;
77625;SDS011;66794;43.764;10.436;2023-06-14T06:36:01;8.43;;;3.83;;
77625;SDS011;66794;43.764;10.436;2023-06-14T06:38:27;4.88;;;3.70;;
77625;SDS011;66794;43.764;10.436;2023-06-14T06:40:53;9.38;;;4.05;;
77625;SDS011;66794;43.764;10.436;2023-06-14T06:43:20;9.85;;;4.13;;
77625;SDS011;66794;43.764;10.436;2023-06-14T06:45:45;11.23;;;4.40;;
77625;SDS011;66794;43.764;10.436;2023-06-14T06:48:11;6.18;;;4.30;;
77625;SDS011;66794;43.764;10.436;2023-06-14T06:50:36;5.50;;;4.47;;
77625;SDS011;66794;43.764;10.436;2023-06-14T06:53:02;7.03;;;4.35;;
77625;SDS011;66794;43.764;10.436;2023-06-14T06:55:27;8.40;;;4.82;;
77625;SDS011;66794;43.764;10.436;2023-06-14T06:57:53;8.38;;;4.75;;
77625;SDS011;66794;43.764;10.436;2023-06-14T07:00:19;7.65;;;5.30;;
77625;SDS011;66794;43.764;10.436;2023-06-14T07:02:46;9.73;;;5.05;;
77625;SDS011;66794;43.764;10.436;2023-06-14T07:05:12;7.05;;;4.75;;
77625;SDS011;66794;43.764;10.436;2023-06-14T07:07:38;8.70;;;5.15;;
77625;SDS011;66794;43.764;10.436;2023-06-14T07:10:04;10.45;;;4.72;;
77625;SDS011;66794;43.764;10.436;2023-06-14T07:12:30;6.18;;;4.55;;
77625;SDS011;66794;43.764;10.436;2023-06-14T07:14:58;7.82;;;4.55;;
77625;SDS011;66794;43.764;10.436;2023-06-14T07:17:24;13.98;;;4.85;;
77625;SDS011;66794;43.764;10.436;2023-06-14T07:19:50;8.55;;;4.18;;
77625;SDS011;66794;43.764;10.436;2023-06-14T07:22:16;9.02;;;4.18;;
77625;SDS011;66794;43.764;10.436;2023-06-14T07:24:42;7.18;;;4.45;;
77625;SDS011;66794;43.764;10.436;2023-06-14T07:27:08;5.82;;;3.95;;
77625;SDS011;66794;43.764;10.436;2023-06-14T07:29:34;5.35;;;3.78;;
77625;SDS011;66794;43.764;10.436;2023-06-14T07:31:59;5.63;;;3.40;;
77625;SDS011;66794;43.764;10.436;2023-06-14T07:34:25;6.60;;;3.55;;
77625;SDS011;66794;43.764;10.436;2023-06-14T07:36:51;7.53;;;4.57;;
77625;SDS011;66794;43.764;10.436;2023-06-14T07:39:16;5.57;;;4.72;;
77625;SDS011;66794;43.764;10.436;2023-06-14T07:41:42;7.50;;;4.50;;
77625;SDS011;66794;43.764;10.436;2023-06-14T07:44:07;6.03;;;4.57;;
77625;SDS011;66794;43.764;10.436;2023-06-14T07:46:33;6.90;;;4.60;;
77625;SDS011;66794;43.764;10.436;2023-06-14T07:48:59;7.57;;;4.40;;
77625;SDS011;66794;43.764;10.436;2023-06-14T07:51:25;6.88;;;4.88;;
77625;SDS011;66794;43.764;10.436;2023-06-14T07:53:51;6.65;;;4.40;;
77625;SDS011;66794;43.764;10.436;2023-06-14T07:56:16;6.47;;;4.15;;
77625;SDS011;66794;43.764;10.436;2023-06-14T07:58:42;5.03;;;4.05;;
77625;SDS011;66794;43.764;10.436;2023-06-14T08:01:08;5.65;;;4.28;;
77625;SDS011;66794;43.764;10.436;2023-06-14T08:03:34;4.80;;;4.10;;
77625;SDS011;66794;43.764;10.436;2023-06-14T08:05:59;5.40;;;3.60;;
77625;SDS011;66794;43.764;10.436;2023-06-14T08:08:26;4.80;;;3.50;;
77625;SDS011;66794;43.764;10.436;2023-06-14T08:10:52;7.07;;;3.53;;
77625;SDS011;66794;43.764;10.436;2023-06-14T08:13:17;4.88;;;3.47;;
77625;SDS011;66794;43.764;10.436;2023-06-14T08:15:43;7.18;;;3.67;;
77625;SDS011;66794;43.764;10.436;2023-06-14T08:18:09;4.20;;;3.50;;
77625;SDS011;66794;43.764;10.436;2023-06-14T08:20:34;5.68;;;3.60;;
77625;SDS011;66794;43.764;10.436;2023-06-14T08:23:01;4.85;;;3.90;;
77625;SDS011;66794;43.764;10.436;2023-06-14T08:25:30;6.47;;;3.92;;
77625;SDS011;66794;43.764;10.436;2023-06-14T08:27:56;5.70;;;3.20;;
77625;SDS011;66794;43.764;10.436;2023-06-14T08:30:22;4.25;;;3.85;;
77625;SDS011;66794;43.764;10.436;2023-06-14T08:32:47;5.60;;;3.63;;
77625;SDS011;66794;43.764;10.436;2023-06-14T08:35:13;5.00;;;3.50;;
77625;SDS011;66794;43.764;10.436;2023-06-14T08:37:39;4.95;;;3.53;;
77625;SDS011;66794;43.764;10.436;2023-06-14T08:40:12;5.75;;;3.65;;
77625;SDS011;66794;43.764;10.436;2023-06-14T08:42:53;5.10;;;3.70;;
77625;SDS011;66794;43.764;10.436;2023-06-14T08:45:23;5.20;;;3.70;;
77625;SDS011;66794;43.764;10.436;2023-06-14T08:47:50;5.80;;;4.10;;
77625;SDS011;66794;43.764;10.436;2023-06-14T08:50:23;8.32;;;3.80;;
77625;SDS011;66794;43.764;10.436;2023-06-14T08:52:55;5.88;;;3.53;;
77625;SDS011;66794;43.764;10.436;2023-06-14T08:55:25;3.90;;;3.50;;
77625;SDS011;66794;43.764;10.436;2023-06-14T08:57:55;3.95;;;3.63;;
77625;SDS011;66794;43.764;10.436;2023-06-14T09:00:26;4.97;;;3.50;;
77625;SDS011;66794;43.764;10.436;2023-06-14T09:02:53;5.57;;;3.20;;
77625;SDS011;66794;43.764;10.436;2023-06-14T09:05:25;5.35;;;3.85;;
77625;SDS011;66794;43.764;10.436;2023-06-14T09:07:51;5.55;;;3.40;;
77625;SDS011;66794;43.764;10.436;2023-06-14T09:10:17;4.72;;;3.15;;
77625;SDS011;66794;43.764;10.436;2023-06-14T09:12:43;4.75;;;3.30;;
77625;SDS011;66794;43.764;10.436;2023-06-14T09:15:09;6.63;;;3.40;;
77625;SDS011;66794;43.764;10.436;2023-06-14T09:17:35;5.60;;;3.08;;
77625;SDS011;66794;43.764;10.436;2023-06-14T09:20:04;6.93;;;3.17;;
77625;SDS011;66794;43.764;10.436;2023-06-14T09:22:36;3.50;;;3.00;;
77625;SDS011;66794;43.764;10.436;2023-06-14T09:25:02;6.20;;;3.50;;
77625;SDS011;66794;43.764;10.436;2023-06-14T09:27:28;3.30;;;2.70;;
77625;SDS011;66794;43.764;10.436;2023-06-14T09:29:54;2.97;;;2.20;;
77625;SDS011;66794;43.764;10.436;2023-06-14T09:32:20;3.75;;;2.40;;
77625;SDS011;66794;43.764;10.436;2023-06-14T09:34:47;3.80;;;2.53;;
77625;SDS011;66794;43.764;10.436;2023-06-14T09:37:12;22.55;;;3.97;;
77625;SDS011;66794;43.764;10.436;2023-06-14T09:39:59;3.38;;;2.50;;
77625;SDS011;66794;43.764;10.436;2023-06-14T09:42:24;3.40;;;2.40;;
77625;SDS011;66794;43.764;10.436;2023-06-14T09:44:51;3.72;;;2.53;;
77625;SDS011;66794;43.764;10.436;2023-06-14T09:47:18;7.20;;;3.30;;
77625;SDS011;66794;43.764;10.436;2023-06-14T09:49:45;2.35;;;2.15;;
77625;SDS011;66794;43.764;10.436;2023-06-14T09:52:15;2.97;;;2.60;;
77625;SDS011;66794;43.764;10.436;2023-06-14T09:54:46;4.28;;;2.10;;
77625;SDS011;66794;43.764;10.436;2023-06-14T09:57:16;2.53;;;2.33;;
77625;SDS011;66794;43.764;10.436;2023-06-14T09:59:46;2.65;;;2.42;;
77625;SDS011;66794;43.764;10.436;2023-06-14T10:02:24;3.05;;;2.35;;
77625;SDS011;66794;43.764;10.436;2023-06-14T10:05:02;9.15;;;2.40;;
77625;SDS011;66794;43.764;10.436;2023-06-14T10:08:07;7.53;;;2.55;;
77625;SDS011;66794;43.764;10.436;2023-06-14T10:10:29;3.17;;;1.95;;
77625;SDS011;66794;43.764;10.436;2023-06-14T10:12:55;3.95;;;2.30;;
77625;SDS011;66794;43.764;10.436;2023-06-14T10:15:28;2.15;;;1.80;;
77625;SDS011;66794;43.764;10.436;2023-06-14T10:18:08;2.03;;;1.80;;
77625;SDS011;66794;43.764;10.436;2023-06-14T10:21:00;9.07;;;2.40;;
77625;SDS011;66794;43.764;10.436;2023-06-14T10:23:29;4.28;;;1.85;;
77625;SDS011;66794;43.764;10.436;2023-06-14T10:25:57;3.17;;;2.20;;
77625;SDS011;66794;43.764;10.436;2023-06-14T10:28:24;2.88;;;2.25;;
77625;SDS011;66794;43.764;10.436;2023-06-14T10:31:06;3.80;;;2.22;;
77625;SDS011;66794;43.764;10.436;2023-06-14T10:33:38;3.53;;;2.42;;
77625;SDS011;66794;43.764;10.436;2023-06-14T10:36:08;2.50;;;2.22;;
77625;SDS011;66794;43.764;10.436;2023-06-14T10:38:45;2.85;;;2.30;;
77625;SDS011;66794;43.764;10.436;2023-06-14T10:41:11;3.03;;;2.50;;
77625;SDS011;66794;43.764;10.436;2023-06-14T10:43:36;2.42;;;2.22;;
77625;SDS011;66794;43.764;10.436;2023-06-14T10:46:15;3.97;;;2.30;;
77625;SDS011;66794;43.764;10.436;2023-06-14T10:48:46;1.95;;;1.75;;
77625;SDS011;66794;43.764;10.436;2023-06-14T10:51:19;2.25;;;1.83;;
77625;SDS011;66794;43.764;10.436;2023-06-14T10:53:48;3.72;;;2.10;;
77625;SDS011;66794;43.764;10.436;2023-06-14T10:56:26;2.75;;;2.03;;
77625;SDS011;66794;43.764;10.436;2023-06-14T10:58:56;2.22;;;1.95;;
77625;SDS011;66794;43.764;10.436;2023-06-14T11:01:31;2.58;;;2.20;;
77625;SDS011;66794;43.764;10.436;2023-06-14T11:04:08;2.45;;;2.25;;
77625;SDS011;66794;43.764;10.436;2023-06-14T11:09:18;3.10;;;2.15;;
77625;SDS011;66794;43.764;10.436;2023-06-14T11:12:06;3.15;;;2.08;;
77625;SDS011;66794;43.764;10.436;2023-06-14T11:14:35;4.05;;;2.33;;
77625;SDS011;66794;43.764;10.436;2023-06-14T11:17:01;3.50;;;2.25;;
77625;SDS011;66794;43.764;10.436;2023-06-14T11:19:27;3.10;;;2.40;;
77625;SDS011;66794;43.764;10.436;2023-06-14T11:21:54;3.35;;;2.30;;
77625;SDS011;66794;43.764;10.436;2023-06-14T11:24:19;2.88;;;2.22;;
77625;SDS011;66794;43.764;10.436;2023-06-14T11:26:46;3.92;;;2.17;;
77625;SDS011;66794;43.764;10.436;2023-06-14T11:29:14;2.63;;;2.13;;
77625;SDS011;66794;43.764;10.436;2023-06-14T11:31:43;2.53;;;2.17;;
77625;SDS011;66794;43.764;10.436;2023-06-14T11:34:10;4.65;;;1.95;;
77625;SDS011;66794;43.764;10.436;2023-06-14T11:36:37;2.28;;;2.03;;
77625;SDS011;66794;43.764;10.436;2023-06-14T11:39:04;2.40;;;2.20;;
77625;SDS011;66794;43.764;10.436;2023-06-14T11:41:37;4.90;;;2.05;;
77625;SDS011;66794;43.764;10.436;2023-06-14T11:44:09;5.00;;;2.20;;
77625;SDS011;66794;43.764;10.436;2023-06-14T11:46:36;4.13;;;2.50;;
77625;SDS011;66794;43.764;10.436;2023-06-14T11:49:03;2.50;;;2.20;;
77625;SDS011;66794;43.764;10.436;2023-06-14T11:51:32;3.08;;;2.10;;
77625;SDS011;66794;43.764;10.436;2023-06-14T11:53:59;2.35;;;2.15;;
77625;SDS011;66794;43.764;10.436;2023-06-14T11:56:28;4.20;;;2.45;;
77625;SDS011;66794;43.764;10.436;2023-06-14T11:58:55;4.00;;;2.38;;
77625;SDS011;66794;43.764;10.436;2023-06-14T12:01:22;2.55;;;2.17;;
77625;SDS011;66794;43.764;10.436;2023-06-14T12:03:51;4.43;;;2.40;;
77625;SDS011;66794;43.764;10.436;2023-06-14T12:06:28;5.15;;;3.38;;
77625;SDS011;66794;43.764;10.436;2023-06-14T12:08:58;5.60;;;3.65;;
77625;SDS011;66794;43.764;10.436;2023-06-14T12:11:23;5.35;;;3.70;;
77625;SDS011;66794;43.764;10.436;2023-06-14T12:13:53;6.47;;;4.05;;
77625;SDS011;66794;43.764;10.436;2023-06-14T12:16:18;11.75;;;4.50;;
77625;SDS011;66794;43.764;10.436;2023-06-14T12:18:44;4.13;;;3.72;;
77625;SDS011;66794;43.764;10.436;2023-06-14T12:21:10;5.72;;;4.32;;
77625;SDS011;66794;43.764;10.436;2023-06-14T12:23:41;4.40;;;4.00;;
77625;SDS011;66794;43.764;10.436;2023-06-14T12:26:15;5.53;;;4.07;;
77625;SDS011;66794;43.764;10.436;2023-06-14T12:28:41;4.30;;;3.90;;
77625;SDS011;66794;43.764;10.436;2023-06-14T12:31:08;4.03;;;3.72;;
77625;SDS011;66794;43.764;10.436;2023-06-14T12:33:34;5.03;;;4.55;;
77625;SDS011;66794;43.764;10.436;2023-06-14T12:36:02;4.45;;;3.80;;
77625;SDS011;66794;43.764;10.436;2023-06-14T12:38:29;5.85;;;4.00;;
77625;SDS011;66794;43.764;10.436;2023-06-14T12:40:55;6.00;;;3.55;;
77625;SDS011;66794;43.764;10.436;2023-06-14T12:43:21;5.00;;;4.00;;
77625;SDS011;66794;43.764;10.436;2023-06-14T12:45:46;4.03;;;3.63;;
77625;SDS011;66794;43.764;10.436;2023-06-14T12:48:11;5.70;;;3.83;;
77625;SDS011;66794;43.764;10.436;2023-06-14T12:50:37;4.30;;;3.90;;
77625;SDS011;66794;43.764;10.436;2023-06-14T12:53:02;6.38;;;3.90;;
77625;SDS011;66794;43.764;10.436;2023-06-14T12:55:28;4.70;;;3.90;;
77625;SDS011;66794;43.764;10.436;2023-06-14T12:57:53;5.22;;;3.47;;
77625;SDS011;66794;43.764;10.436;2023-06-14T13:00:19;6.60;;;4.57;;
77625;SDS011;66794;43.764;10.436;2023-06-14T13:02:46;5.82;;;4.45;;
77625;SDS011;66794;43.764;10.436;2023-06-14T13:05:12;7.55;;;4.25;;
77625;SDS011;66794;43.764;10.436;2023-06-14T13:07:37;7.40;;;4.30;;
77625;SDS011;66794;43.764;10.436;2023-06-14T13:10:03;4.90;;;4.38;;
77625;SDS011;66794;43.764;10.436;2023-06-14T13:12:29;6.32;;;5.72;;
77625;SDS011;66794;43.764;10.436;2023-06-14T13:14:54;6.50;;;4.90;;
77625;SDS011;66794;43.764;10.436;2023-06-14T13:17:20;13.70;;;6.50;;
77625;SDS011;66794;43.764;10.436;2023-06-14T13:19:46;13.80;;;7.47;;
77625;SDS011;66794;43.764;10.436;2023-06-14T13:22:11;10.38;;;7.15;;
77625;SDS011;66794;43.764;10.436;2023-06-14T13:24:36;8.27;;;5.20;;
77625;SDS011;66794;43.764;10.436;2023-06-14T13:27:02;23.17;;;9.43;;
77625;SDS011;66794;43.764;10.436;2023-06-14T13:29:28;14.75;;;6.40;;
77625;SDS011;66794;43.764;10.436;2023-06-14T13:31:55;19.67;;;8.05;;
77625;SDS011;66794;43.764;10.436;2023-06-14T13:34:21;12.45;;;5.68;;
77625;SDS011;66794;43.764;10.436;2023-06-14T13:36:49;15.13;;;5.25;;
77625;SDS011;66794;43.764;10.436;2023-06-14T13:39:15;9.20;;;5.22;;
77625;SDS011;66794;43.764;10.436;2023-06-14T13:41:40;8.10;;;5.00;;
77625;SDS011;66794;43.764;10.436;2023-06-14T13:44:06;13.52;;;6.25;;
77625;SDS011;66794;43.764;10.436;2023-06-14T13:46:31;16.27;;;6.65;;
77625;SDS011;66794;43.764;10.436;2023-06-14T13:48:57;10.20;;;5.32;;
77625;SDS011;66794;43.764;10.436;2023-06-14T13:51:27;8.35;;;5.10;;
77625;SDS011;66794;43.764;10.436;2023-06-14T13:53:52;6.30;;;5.00;;
77625;SDS011;66794;43.764;10.436;2023-06-14T13:56:20;6.82;;;4.85;;
77625;SDS011;66794;43.764;10.436;2023-06-14T13:58:58;5.88;;;5.10;;
77625;SDS011;66794;43.764;10.436;2023-06-14T14:01:24;7.25;;;5.57;;
77625;SDS011;66794;43.764;10.436;2023-06-14T14:03:50;7.55;;;6.10;;
77625;SDS011;66794;43.764;10.436;2023-06-14T14:06:16;8.38;;;5.93;;
77625;SDS011;66794;43.764;10.436;2023-06-14T14:08:41;8.75;;;5.57;;
77625;SDS011;66794;43.764;10.436;2023-06-14T14:11:07;11.07;;;5.47;;
77625;SDS011;66794;43.764;10.436;2023-06-14T14:13:34;7.57;;;5.35;;
77625;SDS011;66794;43.764;10.436;2023-06-14T14:16:01;6.97;;;5.10;;
77625;SDS011;66794;43.764;10.436;2023-06-14T14:18:28;6.18;;;5.00;;
77625;SDS011;66794;43.764;10.436;2023-06-14T14:20:54;5.68;;;4.25;;
77625;SDS011;66794;43.764;10.436;2023-06-14T14:23:19;13.98;;;5.50;;
77625;SDS011;66794;43.764;10.436;2023-06-14T14:25:45;5.85;;;5.22;;
77625;SDS011;66794;43.764;10.436;2023-06-14T14:28:11;7.28;;;5.22;;
77625;SDS011;66794;43.764;10.436;2023-06-14T14:30:38;6.78;;;5.68;;
77625;SDS011;66794;43.764;10.436;2023-06-14T14:33:05;6.18;;;5.57;;
77625;SDS011;66794;43.764;10.436;2023-06-14T14:35:31;7.85;;;6.53;;
77625;SDS011;66794;43.764;10.436;2023-06-14T14:37:57;9.20;;;5.68;;
77625;SDS011;66794;43.764;10.436;2023-06-14T14:40:23;9.50;;;5.60;;
77625;SDS011;66794;43.764;10.436;2023-06-14T14:42:48;7.10;;;5.72;;
77625;SDS011;66794;43.764;10.436;2023-06-14T14:45:14;8.07;;;5.70;;
77625;SDS011;66794;43.764;10.436;2023-06-14T14:47:39;8.05;;;5.25;;
77625;SDS011;66794;43.764;10.436;2023-06-14T14:50:05;8.85;;;5.45;;
77625;SDS011;66794;43.764;10.436;2023-06-14T14:52:34;7.63;;;5.20;;
77625;SDS011;66794;43.764;10.436;2023-06-14T14:54:59;9.73;;;5.70;;
77625;SDS011;66794;43.764;10.436;2023-06-14T14:57:26;7.78;;;5.57;;
77625;SDS011;66794;43.764;10.436;2023-06-14T14:59:52;6.55;;;5.60;;
77625;SDS011;66794;43.764;10.436;2023-06-14T15:02:17;6.57;;;5.47;;
77625;SDS011;66794;43.764;10.436;2023-06-14T15:04:44;9.70;;;6.45;;
77625;SDS011;66794;43.764;10.436;2023-06-14T15:07:10;7.32;;;5.18;;
77625;SDS011;66794;43.764;10.436;2023-06-14T15:09:35;5.60;;;5.10;;
77625;SDS011;66794;43.764;10.436;2023-06-14T15:12:01;6.63;;;5.00;;
77625;SDS011;66794;43.764;10.436;2023-06-14T15:14:27;6.47;;;5.20;;
77625;SDS011;66794;43.764;10.436;2023-06-14T15:16:53;6.80;;;5.13;;
77625;SDS011;66794;43.764;10.436;2023-06-14T15:19:18;6.15;;;5.28;;
77625;SDS011;66794;43.764;10.436;2023-06-14T15:21:44;6.15;;;5.55;;